createdAt,value
2019-05-03T00:01:12.979Z,10.78
2019-05-03T00:03:57.392Z,8.83
2019-05-03T00:06:42.657Z,8.93
2019-05-03T00:09:26.939Z,8.63
2019-05-03T00:12:12.499Z,10.27
2019-05-03T00:15:02.707Z,9.08
2019-05-03T00:17:58.516Z,9.73
2019-05-03T00:20:42.166Z,7.57
2019-05-03T00:23:26.410Z,9.67
2019-05-03T00:26:12.020Z,8.53
2019-05-03T00:28:55.717Z,11.40
2019-05-03T00:31:39.656Z,9.07
2019-05-03T00:34:28.885Z,7.27
2019-05-03T00:37:15.174Z,7.43
2019-05-03T00:40:19.368Z,9.13
2019-05-03T00:43:07.745Z,9.87
2019-05-03T00:45:51.735Z,8.73
2019-05-03T00:48:35.879Z,11.57
2019-05-03T00:54:25.914Z,11.33
2019-05-03T00:57:11.949Z,6.97
2019-05-03T00:59:55.724Z,9.23
2019-05-03T01:02:42.209Z,8.17
2019-05-03T01:05:26.032Z,7.37
2019-05-03T01:08:12.497Z,10.73
2019-05-03T01:10:57.798Z,9.00
2019-05-03T01:13:42.338Z,9.30
2019-05-03T01:16:26.445Z,8.80
2019-05-03T01:19:12.069Z,9.30
2019-05-03T01:21:56.003Z,9.50
2019-05-03T01:24:40.304Z,9.20
2019-05-03T01:27:24.075Z,15.50
2019-05-03T01:30:07.857Z,11.67
2019-05-03T01:32:52.644Z,8.10
2019-05-03T01:35:37.022Z,9.45
2019-05-03T01:38:22.980Z,12.10
2019-05-03T01:41:06.790Z,11.00
2019-05-03T01:43:41.808Z,6.15
2019-05-03T01:46:43.087Z,10.03
2019-05-03T01:49:52.035Z,10.83
2019-05-03T01:52:54.011Z,6.80
2019-05-03T01:56:03.782Z,13.17
2019-05-03T01:58:47.916Z,9.95
2019-05-03T02:04:41.791Z,9.37
2019-05-03T02:07:26.475Z,8.37
2019-05-03T02:10:12.315Z,7.70
2019-05-03T02:12:56.022Z,10.82
2019-05-03T02:15:39.679Z,11.75
2019-05-03T02:18:23.337Z,10.83
2019-05-03T02:21:07.423Z,6.23
2019-05-03T02:23:52.175Z,14.68
2019-05-03T02:26:37.308Z,9.30
2019-05-03T02:29:23.129Z,9.37
2019-05-03T02:32:07.231Z,11.93
2019-05-03T02:34:53.485Z,9.03
2019-05-03T02:37:39.490Z,12.63
2019-05-03T02:40:24.746Z,8.83
2019-05-03T02:46:37.399Z,8.03
2019-05-03T02:49:41.237Z,11.12
2019-05-03T02:52:45.802Z,10.53
2019-05-03T02:55:30.100Z,10.83
2019-05-03T02:58:15.830Z,11.90
2019-05-03T03:01:00.343Z,14.30
2019-05-03T03:03:45.729Z,9.27
2019-05-03T03:06:30.196Z,10.13
2019-05-03T03:09:16.451Z,9.37
2019-05-03T03:11:59.682Z,9.63
2019-05-03T03:14:45.589Z,9.80
2019-05-03T03:17:30.165Z,13.20
2019-05-03T03:20:16.113Z,9.67
2019-05-03T03:22:59.175Z,9.17
2019-05-03T03:25:46.251Z,11.48
2019-05-03T03:28:32.223Z,14.20
2019-05-03T03:31:38.295Z,8.68
2019-05-03T03:34:27.974Z,13.27
2019-05-03T03:37:10.478Z,16.97
2019-05-03T03:39:56.129Z,10.45
2019-05-03T03:42:45.095Z,9.60
2019-05-03T03:45:29.206Z,12.13
2019-05-03T03:48:15.579Z,11.23
2019-05-03T03:50:59.980Z,10.80
2019-05-03T03:53:46.485Z,11.87
2019-05-03T03:56:31.724Z,13.13
2019-05-03T03:59:15.605Z,9.90
2019-05-03T04:02:01.018Z,8.93
2019-05-03T04:04:45.404Z,10.43
2019-05-03T04:07:29.261Z,12.93
2019-05-03T04:10:15.677Z,10.17
2019-05-03T04:13:05.448Z,12.17
2019-05-03T04:16:29.764Z,10.97
2019-05-03T04:19:18.336Z,12.57
2019-05-03T04:22:08.333Z,12.80
2019-05-03T04:24:57.194Z,16.80
2019-05-03T04:27:41.843Z,10.20
2019-05-03T04:30:26.520Z,10.60
2019-05-03T04:33:10.793Z,9.70
2019-05-03T04:35:55.694Z,11.30
2019-05-03T04:38:39.649Z,10.37
2019-05-03T04:41:28.613Z,10.70
2019-05-03T04:44:12.113Z,10.45
2019-05-03T04:46:58.432Z,11.43
2019-05-03T04:49:49.655Z,15.97
2019-05-03T04:52:41.317Z,14.30
2019-05-03T04:55:26.775Z,9.73
2019-05-03T04:58:12.823Z,11.53
2019-05-03T05:00:57.369Z,11.12
2019-05-03T05:03:45.534Z,12.55
2019-05-03T05:06:35.005Z,12.80
2019-05-03T05:09:30.528Z,10.50
2019-05-03T05:12:16.282Z,12.68
2019-05-03T05:15:00.329Z,13.70
2019-05-03T05:18:09.825Z,10.53
2019-05-03T05:21:18.056Z,11.07
2019-05-03T05:24:05.605Z,13.93
2019-05-03T05:26:56.729Z,13.47
2019-05-03T05:29:40.369Z,10.63
2019-05-03T05:32:24.727Z,17.37
2019-05-03T05:35:08.885Z,13.20
2019-05-03T05:37:54.658Z,15.03
2019-05-03T05:40:39.290Z,18.17
2019-05-03T05:43:25.524Z,11.33
2019-05-03T05:46:12.004Z,12.03
2019-05-03T05:48:56.475Z,10.63
2019-05-03T05:51:41.191Z,8.20
2019-05-03T05:54:25.413Z,12.27
2019-05-03T05:57:28.895Z,11.53
2019-05-03T06:03:17.111Z,8.10
2019-05-03T06:06:05.667Z,13.00
2019-05-03T06:09:08.905Z,11.43
2019-05-03T06:15:01.836Z,11.53
2019-05-03T06:21:11.542Z,13.22
2019-05-03T06:33:19.673Z,15.50
2019-05-03T06:36:08.227Z,9.87
2019-05-03T06:39:10.766Z,10.13
2019-05-03T06:41:56.302Z,13.03
2019-05-03T06:44:40.418Z,9.80
2019-05-03T06:47:31.902Z,15.03
2019-05-03T06:50:34.781Z,13.90
2019-05-03T06:53:20.063Z,9.07
2019-05-03T06:56:07.109Z,12.13
2019-05-03T06:58:52.359Z,17.07
2019-05-03T07:02:01.830Z,11.63
2019-05-03T07:04:48.754Z,12.03
2019-05-03T07:07:57.552Z,9.73
2019-05-03T07:10:45.637Z,11.65
2019-05-03T07:13:30.668Z,10.10
2019-05-03T07:16:15.090Z,12.17
2019-05-03T07:19:00.738Z,10.03
2019-05-03T07:21:44.797Z,13.27
2019-05-03T07:24:30.320Z,11.00
2019-05-03T07:27:15.919Z,10.23
2019-05-03T07:30:00.707Z,8.43
2019-05-03T07:32:46.360Z,6.53
2019-05-03T07:35:32.712Z,9.87
2019-05-03T07:38:16.310Z,12.97
2019-05-03T07:41:02.171Z,13.27
2019-05-03T07:43:46.868Z,7.67
2019-05-03T07:46:34.750Z,10.40
2019-05-03T07:49:18.271Z,11.73
2019-05-03T07:52:05.619Z,11.03
2019-05-03T07:54:49.518Z,11.83
2019-05-03T08:01:05.453Z,9.07
2019-05-03T08:03:46.385Z,10.37
2019-05-03T08:06:31.192Z,10.03
2019-05-03T08:09:18.413Z,9.10
2019-05-03T08:12:04.915Z,7.07
2019-05-03T08:14:48.929Z,12.23
2019-05-03T08:17:34.690Z,8.10
2019-05-03T08:20:18.499Z,7.90
2019-05-03T08:23:02.586Z,9.67
2019-05-03T08:25:46.611Z,6.73
2019-05-03T08:28:31.989Z,17.87
2019-05-03T08:37:59.674Z,7.47
2019-05-03T08:40:47.148Z,9.50
2019-05-03T08:46:36.799Z,10.17
2019-05-03T08:49:22.789Z,6.57
2019-05-03T08:52:07.043Z,8.57
2019-05-03T08:54:51.338Z,5.90
2019-05-03T08:57:35.996Z,8.20
2019-05-03T09:00:22.067Z,5.50
2019-05-03T09:03:06.415Z,6.63
2019-05-03T09:05:51.035Z,8.83
2019-05-03T09:11:48.401Z,7.20
2019-05-03T09:14:24.499Z,7.08
2019-05-03T09:17:15.324Z,11.33
2019-05-03T09:20:02.235Z,8.83
2019-05-03T09:22:47.450Z,8.03
2019-05-03T09:25:35.598Z,8.30
2019-05-03T09:28:19.653Z,8.25
2019-05-03T09:31:04.647Z,6.20
2019-05-03T09:33:48.674Z,9.07
2019-05-03T09:36:39.375Z,5.13
2019-05-03T09:39:47.171Z,8.20
2019-05-03T09:42:31.309Z,6.03
2019-05-03T09:45:15.424Z,8.27
2019-05-03T09:48:00.243Z,9.30
2019-05-03T09:50:45.745Z,9.83
2019-05-03T09:53:35.114Z,6.07
2019-05-03T09:59:56.395Z,6.17
2019-05-03T10:02:32.659Z,6.73
2019-05-03T10:05:17.147Z,2.75
2019-05-03T10:08:00.984Z,5.10
2019-05-03T10:11:05.542Z,6.47
2019-05-03T10:13:50.446Z,4.50
2019-05-03T10:16:38.690Z,4.00
2019-05-03T10:19:34.859Z,6.83
2019-05-03T10:22:15.497Z,4.47
2019-05-03T10:25:00.132Z,6.13
2019-05-03T10:27:47.139Z,7.73
2019-05-03T10:30:30.989Z,4.40
2019-05-03T10:33:19.862Z,5.70
2019-05-03T10:36:05.619Z,4.00
2019-05-03T10:38:50.088Z,4.53
2019-05-03T10:41:34.771Z,6.00
2019-05-03T10:44:19.049Z,3.97
2019-05-03T10:47:05.534Z,5.37
2019-05-03T10:49:50.456Z,5.63
2019-05-03T10:55:37.425Z,3.53
2019-05-03T10:58:21.548Z,3.87
2019-05-03T11:01:06.017Z,7.00
2019-05-03T11:03:50.497Z,10.40
2019-05-03T11:06:35.545Z,9.35
2019-05-03T11:09:21.405Z,5.57
2019-05-03T11:12:08.675Z,10.90
2019-05-03T11:14:52.708Z,9.70
2019-05-03T11:17:37.452Z,5.00
2019-05-03T11:20:34.610Z,5.93
2019-05-03T11:23:34.573Z,7.03
2019-05-03T11:26:19.329Z,6.97
2019-05-03T11:29:05.221Z,7.03
2019-05-03T11:32:11.999Z,5.73
2019-05-03T11:38:36.945Z,5.77
2019-05-03T11:41:30.196Z,6.20
2019-05-03T11:44:26.652Z,5.37
2019-05-03T11:47:10.399Z,8.00
2019-05-03T11:49:55.243Z,4.90
2019-05-03T11:52:40.242Z,4.12
2019-05-03T11:55:26.817Z,5.83
2019-05-03T12:04:17.868Z,6.13
2019-05-03T12:07:02.043Z,6.70
2019-05-03T12:09:46.789Z,7.50
2019-05-03T12:12:35.337Z,8.97
2019-05-03T12:15:20.148Z,7.80
2019-05-03T12:18:08.017Z,7.67
2019-05-03T12:20:56.242Z,6.03
2019-05-03T12:23:40.214Z,6.63
2019-05-03T12:26:25.981Z,8.27
2019-05-03T12:29:12.063Z,5.70
2019-05-03T12:31:56.370Z,10.23
2019-05-03T12:34:39.998Z,8.00
2019-05-03T12:37:26.327Z,8.40
2019-05-03T12:40:14.897Z,4.40
2019-05-03T12:42:59.135Z,6.17
2019-05-03T12:45:43.873Z,8.10
2019-05-03T12:48:28.827Z,8.58
2019-05-03T12:51:15.006Z,7.03
2019-05-03T12:53:58.259Z,9.20
2019-05-03T12:56:32.662Z,6.95
2019-05-03T12:59:48.012Z,7.83
2019-05-03T13:02:57.083Z,4.30
2019-05-03T13:05:41.669Z,7.83
2019-05-03T13:08:49.419Z,5.30
2019-05-03T13:11:36.597Z,5.77
2019-05-03T13:14:21.522Z,7.37
2019-05-03T13:17:05.678Z,7.80
2019-05-03T13:19:49.346Z,6.63
2019-05-03T13:22:35.076Z,7.03
2019-05-03T13:25:19.347Z,4.70
2019-05-03T13:28:05.486Z,5.63
2019-05-03T13:30:50.373Z,4.87
2019-05-03T13:33:34.964Z,5.53
2019-05-03T13:36:21.980Z,6.55
2019-05-03T13:39:13.190Z,7.50
2019-05-03T13:42:05.796Z,9.30
2019-05-03T13:45:04.751Z,4.27
2019-05-03T13:47:49.119Z,4.70
2019-05-03T13:50:35.145Z,7.57
2019-05-03T13:53:19.834Z,6.10
2019-05-03T13:56:04.991Z,3.70
2019-05-03T13:58:49.745Z,6.53
2019-05-03T14:01:34.448Z,4.43
2019-05-03T14:04:21.281Z,3.93
2019-05-03T14:07:09.217Z,4.53
2019-05-03T14:09:55.567Z,3.25
2019-05-03T14:12:39.366Z,5.00
2019-05-03T14:15:25.421Z,4.87
2019-05-03T14:18:10.759Z,6.87
2019-05-03T14:24:15.754Z,6.58
2019-05-03T14:27:02.563Z,8.77
2019-05-03T14:29:54.908Z,5.80
2019-05-03T14:32:57.036Z,6.73
2019-05-03T14:35:31.982Z,8.77
2019-05-03T14:38:16.639Z,6.20
2019-05-03T14:41:01.343Z,5.93
2019-05-03T14:43:45.883Z,4.83
2019-05-03T14:46:33.325Z,5.30
2019-05-03T14:49:16.762Z,5.17
2019-05-03T14:52:00.868Z,5.57
2019-05-03T14:54:47.281Z,3.08
2019-05-03T14:57:35.140Z,2.77
2019-05-03T15:00:38.769Z,4.85
2019-05-03T15:03:15.119Z,4.13
2019-05-03T15:06:05.160Z,3.77
2019-05-03T15:09:01.631Z,4.20
2019-05-03T15:11:48.209Z,4.07
2019-05-03T15:17:41.781Z,4.43
2019-05-03T15:20:26.864Z,2.60
2019-05-03T15:23:11.747Z,2.87
2019-05-03T15:25:56.089Z,4.20
2019-05-03T15:28:44.920Z,2.47
2019-05-03T15:31:31.038Z,5.37
2019-05-03T15:34:15.209Z,3.80
2019-05-03T15:36:59.916Z,2.23
2019-05-03T15:39:45.217Z,5.28
2019-05-03T15:42:30.396Z,4.23
2019-05-03T15:48:24.674Z,5.43
2019-05-03T15:51:16.155Z,5.37
2019-05-03T15:54:01.040Z,4.03
2019-05-03T15:56:45.325Z,4.63
2019-05-03T15:59:30.194Z,4.80
2019-05-03T16:02:15.179Z,4.80
2019-05-03T16:05:02.616Z,5.50
2019-05-03T16:07:48.056Z,7.22
2019-05-03T16:10:33.230Z,4.43
2019-05-03T16:13:17.575Z,7.57
2019-05-03T16:16:02.122Z,4.57
2019-05-03T16:18:46.874Z,4.57
2019-05-03T16:21:31.537Z,4.97
2019-05-03T16:24:16.271Z,4.17
2019-05-03T16:33:27.672Z,4.07
2019-05-03T16:36:11.143Z,3.73
2019-05-03T16:38:55.941Z,5.60
2019-05-03T16:41:40.204Z,5.35
2019-05-03T16:44:25.518Z,6.90
2019-05-03T16:47:09.444Z,4.23
2019-05-03T16:49:54.010Z,5.30
2019-05-03T16:52:40.823Z,6.90
2019-05-03T16:55:25.680Z,6.00
2019-05-03T16:58:10.356Z,8.53
2019-05-03T17:00:55.345Z,7.60
2019-05-03T17:07:09.573Z,5.15
2019-05-03T17:10:15.179Z,7.55
2019-05-03T17:12:59.419Z,5.90
2019-05-03T17:15:43.801Z,3.93
2019-05-03T17:18:28.637Z,6.97
2019-05-03T17:21:14.593Z,5.87
2019-05-03T17:24:00.220Z,3.57
2019-05-03T17:26:46.249Z,4.50
2019-05-03T17:29:18.761Z,6.72
2019-05-03T17:32:04.909Z,10.47
2019-05-03T17:34:54.703Z,6.23
2019-05-03T17:37:39.939Z,6.97
2019-05-03T17:40:44.238Z,9.10
2019-05-03T17:43:45.155Z,10.70
2019-05-03T17:46:42.409Z,7.33
2019-05-03T17:49:26.454Z,5.80
2019-05-03T17:52:29.296Z,6.00
2019-05-03T17:58:39.633Z,6.77
2019-05-03T18:01:44.617Z,6.20
2019-05-03T18:07:39.654Z,5.45
2019-05-03T18:10:41.496Z,4.90
2019-05-03T18:13:26.123Z,5.97
2019-05-03T18:16:10.085Z,5.67
2019-05-03T18:18:54.819Z,4.30
2019-05-03T18:21:39.036Z,6.23
2019-05-03T18:24:24.800Z,5.85
2019-05-03T18:27:08.698Z,7.37
2019-05-03T18:29:52.616Z,8.07
2019-05-03T18:32:37.067Z,5.93
2019-05-03T18:35:21.455Z,5.63
2019-05-03T18:38:05.566Z,7.23
2019-05-03T18:40:51.284Z,6.50
2019-05-03T18:46:51.515Z,6.05
2019-05-03T18:49:37.247Z,3.83
2019-05-03T18:52:21.799Z,5.22
2019-05-03T18:55:05.634Z,6.70
2019-05-03T18:57:49.920Z,4.30
2019-05-03T19:00:35.106Z,5.73
2019-05-03T19:03:20.705Z,8.30
2019-05-03T19:06:07.061Z,9.83
2019-05-03T19:09:10.087Z,5.20
2019-05-03T19:12:16.092Z,3.77
2019-05-03T19:15:00.480Z,5.87
2019-05-03T19:20:48.678Z,7.60
2019-05-03T19:23:32.787Z,7.40
2019-05-03T19:26:17.634Z,6.93
2019-05-03T19:29:01.857Z,2.15
2019-05-03T19:31:47.721Z,4.50
2019-05-03T19:34:44.135Z,5.20
2019-05-03T19:37:25.343Z,2.50
2019-05-03T19:40:09.713Z,4.00
2019-05-03T19:42:58.326Z,3.30
2019-05-03T19:45:44.895Z,2.80
2019-05-03T19:48:29.587Z,3.57
2019-05-03T19:51:13.878Z,4.83
2019-05-03T19:53:58.547Z,3.02
2019-05-03T19:56:42.219Z,2.47
2019-05-03T19:59:45.369Z,3.10
2019-05-03T20:02:49.735Z,1.90
2019-05-03T20:08:41.153Z,3.10
2019-05-03T20:11:25.437Z,3.47
2019-05-03T20:14:09.550Z,2.63
2019-05-03T20:16:54.945Z,6.20
2019-05-03T20:19:39.674Z,2.63
2019-05-03T20:22:24.656Z,4.40
2019-05-03T20:25:08.575Z,4.60
2019-05-03T20:27:53.043Z,4.03
2019-05-03T20:30:37.452Z,4.77
2019-05-03T20:33:21.622Z,4.27
2019-05-03T20:36:05.231Z,4.03
2019-05-03T20:38:50.288Z,7.00
2019-05-03T20:41:35.032Z,3.23
2019-05-03T20:47:26.389Z,4.72
2019-05-03T20:50:17.573Z,5.03
2019-05-03T20:53:16.186Z,4.90
2019-05-03T20:56:00.432Z,2.83
2019-05-03T20:58:44.820Z,3.57
2019-05-03T21:01:29.127Z,5.37
2019-05-03T21:04:15.185Z,3.27
2019-05-03T21:06:59.518Z,3.77
2019-05-03T21:09:45.597Z,3.20
2019-05-03T21:12:31.442Z,2.57
2019-05-03T21:18:38.000Z,4.00
2019-05-03T21:21:45.241Z,5.17
2019-05-03T21:27:31.259Z,4.87
2019-05-03T21:30:16.488Z,6.80
2019-05-03T21:33:00.947Z,4.73
2019-05-03T21:35:49.233Z,9.90
2019-05-03T21:38:35.423Z,9.73
2019-05-03T21:41:19.877Z,11.12
2019-05-03T21:44:04.813Z,7.50
2019-05-03T21:46:50.547Z,8.70
2019-05-03T21:49:40.128Z,7.00
2019-05-03T21:52:24.980Z,6.00
2019-05-03T21:55:09.486Z,7.87
2019-05-03T21:57:55.186Z,5.60
2019-05-03T22:03:44.627Z,8.83
2019-05-03T22:06:28.481Z,10.50
2019-05-03T22:09:12.498Z,11.10
2019-05-03T22:11:57.762Z,6.47
2019-05-03T22:18:11.090Z,5.77
2019-05-03T22:21:16.397Z,8.93
2019-05-03T22:27:08.706Z,8.27
2019-05-03T22:29:54.576Z,7.03
2019-05-03T22:32:39.088Z,8.73
2019-05-03T22:35:24.955Z,5.97
2019-05-03T22:38:08.406Z,10.30
2019-05-03T22:40:55.316Z,7.57
2019-05-03T22:43:39.217Z,6.87
2019-05-03T22:46:24.842Z,6.90
2019-05-03T22:49:08.717Z,9.35
2019-05-03T22:51:54.398Z,12.83
2019-05-03T22:54:38.060Z,10.80
2019-05-03T22:57:22.222Z,6.37
2019-05-03T23:00:10.402Z,6.60
2019-05-03T23:03:07.279Z,13.07
2019-05-03T23:08:35.262Z,8.20
2019-05-03T23:11:20.593Z,8.90
2019-05-03T23:14:05.148Z,8.33
2019-05-03T23:16:49.043Z,7.57
2019-05-03T23:19:34.767Z,10.00
2019-05-03T23:25:32.126Z,5.20
2019-05-03T23:28:04.697Z,7.27
2019-05-03T23:30:48.762Z,9.47
2019-05-03T23:33:34.364Z,8.03
2019-05-03T23:36:18.184Z,7.50
2019-05-03T23:39:02.519Z,8.33
2019-05-03T23:41:47.737Z,10.70
2019-05-03T23:44:31.721Z,8.60
2019-05-03T23:47:40.632Z,7.77
2019-05-03T23:50:24.843Z,9.10
2019-05-03T23:53:09.444Z,7.77
2019-05-03T23:58:58.948Z,14.13
